sensor_id;sensor_type;location;lat;lon;timestamp;temperature;humidity
16995;DHT22;8614;48.522;9.206;2023-08-20T00:01:27;21.60;99.90
16995;DHT22;8614;48.522;9.206;2023-08-20T00:03:56;21.60;99.90
16995;DHT22;8614;48.522;9.206;2023-08-20T00:06:24;21.50;99.90
16995;DHT22;8614;48.522;9.206;2023-08-20T00:08:50;21.50;99.90
16995;DHT22;8614;48.522;9.206;2023-08-20T00:11:17;21.50;99.90
16995;DHT22;8614;48.522;9.206;2023-08-20T00:13:44;21.50;99.90
16995;DHT22;8614;48.522;9.206;2023-08-20T00:16:11;21.40;99.90
16995;DHT22;8614;48.522;9.206;2023-08-20T00:18:39;21.40;99.90
16995;DHT22;8614;48.522;9.206;2023-08-20T00:21:08;21.40;99.90
16995;DHT22;8614;48.522;9.206;2023-08-20T00:23:35;21.40;99.90
16995;DHT22;8614;48.522;9.206;2023-08-20T00:26:03;21.30;99.90
16995;DHT22;8614;48.522;9.206;2023-08-20T00:28:30;21.30;99.90
16995;DHT22;8614;48.522;9.206;2023-08-20T00:30:59;21.30;99.90
16995;DHT22;8614;48.522;9.206;2023-08-20T00:33:26;21.30;99.90
16995;DHT22;8614;48.522;9.206;2023-08-20T00:35:54;21.40;99.90
16995;DHT22;8614;48.522;9.206;2023-08-20T00:38:22;21.40;99.90
16995;DHT22;8614;48.522;9.206;2023-08-20T00:40:49;21.30;99.90
16995;DHT22;8614;48.522;9.206;2023-08-20T00:43:16;21.30;99.90
16995;DHT22;8614;48.522;9.206;2023-08-20T00:45:43;21.30;99.90
16995;DHT22;8614;48.522;9.206;2023-08-20T00:48:10;21.30;99.90
16995;DHT22;8614;48.522;9.206;2023-08-20T00:50:38;21.30;99.90
16995;DHT22;8614;48.522;9.206;2023-08-20T00:53:05;21.20;99.90
16995;DHT22;8614;48.522;9.206;2023-08-20T00:55:35;21.20;99.90
16995;DHT22;8614;48.522;9.206;2023-08-20T00:58:03;21.20;99.90
16995;DHT22;8614;48.522;9.206;2023-08-20T01:00:30;21.10;99.90
16995;DHT22;8614;48.522;9.206;2023-08-20T01:02:57;21.10;99.90
16995;DHT22;8614;48.522;9.206;2023-08-20T01:05:24;21.10;99.90
16995;DHT22;8614;48.522;9.206;2023-08-20T01:08:04;21.10;99.90
16995;DHT22;8614;48.522;9.206;2023-08-20T01:10:42;21.00;99.90
16995;DHT22;8614;48.522;9.206;2023-08-20T01:13:09;21.00;99.90
16995;DHT22;8614;48.522;9.206;2023-08-20T01:15:36;21.00;99.90
16995;DHT22;8614;48.522;9.206;2023-08-20T01:18:03;20.90;99.90
16995;DHT22;8614;48.522;9.206;2023-08-20T01:20:34;20.90;99.90
16995;DHT22;8614;48.522;9.206;2023-08-20T01:26:31;20.90;99.90
16995;DHT22;8614;48.522;9.206;2023-08-20T01:29:05;20.90;99.90
16995;DHT22;8614;48.522;9.206;2023-08-20T01:31:32;20.90;99.90
16995;DHT22;8614;48.522;9.206;2023-08-20T01:34:00;20.90;99.90
16995;DHT22;8614;48.522;9.206;2023-08-20T01:36:27;20.90;99.90
16995;DHT22;8614;48.522;9.206;2023-08-20T01:38:54;20.90;99.90
16995;DHT22;8614;48.522;9.206;2023-08-20T01:41:22;20.90;99.90
16995;DHT22;8614;48.522;9.206;2023-08-20T01:43:49;20.80;99.90
16995;DHT22;8614;48.522;9.206;2023-08-20T01:46:17;20.80;99.90
16995;DHT22;8614;48.522;9.206;2023-08-20T01:48:44;20.80;99.90
16995;DHT22;8614;48.522;9.206;2023-08-20T01:51:11;20.80;99.90
16995;DHT22;8614;48.522;9.206;2023-08-20T01:53:38;20.80;99.90
16995;DHT22;8614;48.522;9.206;2023-08-20T01:56:11;20.80;99.90
16995;DHT22;8614;48.522;9.206;2023-08-20T01:58:38;20.80;99.90
16995;DHT22;8614;48.522;9.206;2023-08-20T02:01:05;20.70;99.90
16995;DHT22;8614;48.522;9.206;2023-08-20T02:03:34;20.70;99.90
16995;DHT22;8614;48.522;9.206;2023-08-20T02:06:01;20.60;99.90
16995;DHT22;8614;48.522;9.206;2023-08-20T02:08:28;20.60;99.90
16995;DHT22;8614;48.522;9.206;2023-08-20T02:11:00;20.60;99.90
16995;DHT22;8614;48.522;9.206;2023-08-20T02:13:27;20.50;99.90
16995;DHT22;8614;48.522;9.206;2023-08-20T02:15:58;20.50;99.90
16995;DHT22;8614;48.522;9.206;2023-08-20T02:18:27;20.50;99.90
16995;DHT22;8614;48.522;9.206;2023-08-20T02:20:56;20.50;99.90
16995;DHT22;8614;48.522;9.206;2023-08-20T02:23:23;20.50;99.90
16995;DHT22;8614;48.522;9.206;2023-08-20T02:25:51;20.50;99.90
16995;DHT22;8614;48.522;9.206;2023-08-20T02:28:18;20.40;99.90
16995;DHT22;8614;48.522;9.206;2023-08-20T02:30:46;20.40;99.90
16995;DHT22;8614;48.522;9.206;2023-08-20T02:33:13;20.30;99.90
16995;DHT22;8614;48.522;9.206;2023-08-20T02:35:40;20.30;99.90
16995;DHT22;8614;48.522;9.206;2023-08-20T02:38:08;20.30;99.90
16995;DHT22;8614;48.522;9.206;2023-08-20T02:40:39;20.30;99.90
16995;DHT22;8614;48.522;9.206;2023-08-20T02:43:06;20.30;99.90
16995;DHT22;8614;48.522;9.206;2023-08-20T02:45:33;20.30;99.90
16995;DHT22;8614;48.522;9.206;2023-08-20T02:48:00;20.30;99.90
16995;DHT22;8614;48.522;9.206;2023-08-20T02:50:26;20.30;99.90
16995;DHT22;8614;48.522;9.206;2023-08-20T02:52:54;20.30;99.90
16995;DHT22;8614;48.522;9.206;2023-08-20T02:55:22;20.30;99.90
16995;DHT22;8614;48.522;9.206;2023-08-20T02:57:49;20.20;99.90
16995;DHT22;8614;48.522;9.206;2023-08-20T03:00:16;20.10;99.90
16995;DHT22;8614;48.522;9.206;2023-08-20T03:02:43;20.00;99.90
16995;DHT22;8614;48.522;9.206;2023-08-20T03:05:10;20.00;99.90
16995;DHT22;8614;48.522;9.206;2023-08-20T03:07:37;20.00;99.90
16995;DHT22;8614;48.522;9.206;2023-08-20T03:10:04;20.00;99.90
16995;DHT22;8614;48.522;9.206;2023-08-20T03:12:33;20.00;99.90
16995;DHT22;8614;48.522;9.206;2023-08-20T03:15:00;20.00;99.90
16995;DHT22;8614;48.522;9.206;2023-08-20T03:17:28;20.00;99.90
16995;DHT22;8614;48.522;9.206;2023-08-20T03:19:56;20.00;99.90
16995;DHT22;8614;48.522;9.206;2023-08-20T03:22:23;20.00;99.90
16995;DHT22;8614;48.522;9.206;2023-08-20T03:24:50;20.00;99.90
16995;DHT22;8614;48.522;9.206;2023-08-20T03:27:18;20.00;99.90
16995;DHT22;8614;48.522;9.206;2023-08-20T03:29:46;20.00;99.90
16995;DHT22;8614;48.522;9.206;2023-08-20T03:32:14;19.90;99.90
16995;DHT22;8614;48.522;9.206;2023-08-20T03:34:41;19.90;99.90
16995;DHT22;8614;48.522;9.206;2023-08-20T03:37:07;19.80;99.90
16995;DHT22;8614;48.522;9.206;2023-08-20T03:39:34;19.80;99.90
16995;DHT22;8614;48.522;9.206;2023-08-20T03:42:01;19.70;99.90
16995;DHT22;8614;48.522;9.206;2023-08-20T03:44:28;19.70;99.90
16995;DHT22;8614;48.522;9.206;2023-08-20T03:46:57;19.70;99.90
16995;DHT22;8614;48.522;9.206;2023-08-20T03:49:25;19.70;99.90
16995;DHT22;8614;48.522;9.206;2023-08-20T03:51:52;19.70;99.90
16995;DHT22;8614;48.522;9.206;2023-08-20T03:54:19;19.70;99.90
16995;DHT22;8614;48.522;9.206;2023-08-20T03:56:46;19.80;99.90
16995;DHT22;8614;48.522;9.206;2023-08-20T03:59:13;19.70;99.90
16995;DHT22;8614;48.522;9.206;2023-08-20T04:01:40;19.70;99.90
16995;DHT22;8614;48.522;9.206;2023-08-20T04:04:08;19.70;99.90
16995;DHT22;8614;48.522;9.206;2023-08-20T04:06:35;19.70;99.90
16995;DHT22;8614;48.522;9.206;2023-08-20T04:09:02;19.70;99.90
16995;DHT22;8614;48.522;9.206;2023-08-20T04:11:29;19.70;99.90
16995;DHT22;8614;48.522;9.206;2023-08-20T04:13:56;19.70;99.90
16995;DHT22;8614;48.522;9.206;2023-08-20T04:16:23;19.60;99.90
16995;DHT22;8614;48.522;9.206;2023-08-20T04:18:49;19.60;99.90
16995;DHT22;8614;48.522;9.206;2023-08-20T04:21:17;19.60;99.90
16995;DHT22;8614;48.522;9.206;2023-08-20T04:23:44;19.60;99.90
16995;DHT22;8614;48.522;9.206;2023-08-20T04:26:11;19.60;99.90
16995;DHT22;8614;48.522;9.206;2023-08-20T04:28:38;19.60;99.90
16995;DHT22;8614;48.522;9.206;2023-08-20T04:31:06;19.60;99.90
16995;DHT22;8614;48.522;9.206;2023-08-20T04:33:47;19.60;99.90
16995;DHT22;8614;48.522;9.206;2023-08-20T04:36:19;19.60;99.90
16995;DHT22;8614;48.522;9.206;2023-08-20T04:38:46;19.70;99.90
16995;DHT22;8614;48.522;9.206;2023-08-20T04:41:13;19.70;99.90
16995;DHT22;8614;48.522;9.206;2023-08-20T04:43:40;19.70;99.90
16995;DHT22;8614;48.522;9.206;2023-08-20T04:46:07;19.70;99.90
16995;DHT22;8614;48.522;9.206;2023-08-20T04:48:34;19.70;99.90
16995;DHT22;8614;48.522;9.206;2023-08-20T04:51:01;19.70;99.90
16995;DHT22;8614;48.522;9.206;2023-08-20T04:53:30;19.70;99.90
16995;DHT22;8614;48.522;9.206;2023-08-20T04:55:58;19.70;99.90
16995;DHT22;8614;48.522;9.206;2023-08-20T04:58:25;19.80;99.90
16995;DHT22;8614;48.522;9.206;2023-08-20T05:00:52;19.80;99.90
16995;DHT22;8614;48.522;9.206;2023-08-20T05:03:19;19.80;99.90
16995;DHT22;8614;48.522;9.206;2023-08-20T05:05:48;19.80;99.90
16995;DHT22;8614;48.522;9.206;2023-08-20T05:08:15;19.90;99.90
16995;DHT22;8614;48.522;9.206;2023-08-20T05:10:43;19.90;99.90
16995;DHT22;8614;48.522;9.206;2023-08-20T05:13:11;20.00;99.90
16995;DHT22;8614;48.522;9.206;2023-08-20T05:15:38;20.10;99.90
16995;DHT22;8614;48.522;9.206;2023-08-20T05:18:05;20.10;99.90
16995;DHT22;8614;48.522;9.206;2023-08-20T05:20:32;20.20;99.90
16995;DHT22;8614;48.522;9.206;2023-08-20T05:22:59;20.20;99.90
16995;DHT22;8614;48.522;9.206;2023-08-20T05:25:26;20.30;99.90
16995;DHT22;8614;48.522;9.206;2023-08-20T05:27:54;20.40;99.90
16995;DHT22;8614;48.522;9.206;2023-08-20T05:30:21;20.50;99.90
16995;DHT22;8614;48.522;9.206;2023-08-20T05:32:48;20.60;99.90
16995;DHT22;8614;48.522;9.206;2023-08-20T05:35:15;20.70;99.90
16995;DHT22;8614;48.522;9.206;2023-08-20T05:37:43;20.90;99.90
16995;DHT22;8614;48.522;9.206;2023-08-20T05:40:10;21.00;99.90
16995;DHT22;8614;48.522;9.206;2023-08-20T05:42:37;21.10;99.90
16995;DHT22;8614;48.522;9.206;2023-08-20T05:45:08;21.20;99.90
16995;DHT22;8614;48.522;9.206;2023-08-20T05:47:35;21.30;99.90
16995;DHT22;8614;48.522;9.206;2023-08-20T05:50:03;21.50;99.90
16995;DHT22;8614;48.522;9.206;2023-08-20T05:52:29;21.60;99.90
16995;DHT22;8614;48.522;9.206;2023-08-20T05:54:56;21.80;99.90
16995;DHT22;8614;48.522;9.206;2023-08-20T05:57:23;21.90;99.90
16995;DHT22;8614;48.522;9.206;2023-08-20T05:59:50;22.00;99.90
16995;DHT22;8614;48.522;9.206;2023-08-20T06:02:18;22.00;99.90
16995;DHT22;8614;48.522;9.206;2023-08-20T06:04:46;22.20;99.90
16995;DHT22;8614;48.522;9.206;2023-08-20T06:07:14;22.20;99.90
16995;DHT22;8614;48.522;9.206;2023-08-20T06:09:42;22.30;99.90
16995;DHT22;8614;48.522;9.206;2023-08-20T06:12:09;22.30;99.90
16995;DHT22;8614;48.522;9.206;2023-08-20T06:14:36;22.30;99.90
16995;DHT22;8614;48.522;9.206;2023-08-20T06:17:03;22.40;99.90
16995;DHT22;8614;48.522;9.206;2023-08-20T06:19:31;22.40;99.90
16995;DHT22;8614;48.522;9.206;2023-08-20T06:21:58;22.50;99.90
16995;DHT22;8614;48.522;9.206;2023-08-20T06:24:25;22.50;99.90
16995;DHT22;8614;48.522;9.206;2023-08-20T06:26:52;22.60;99.90
16995;DHT22;8614;48.522;9.206;2023-08-20T06:29:19;22.70;99.90
16995;DHT22;8614;48.522;9.206;2023-08-20T06:31:47;22.80;99.90
16995;DHT22;8614;48.522;9.206;2023-08-20T06:34:14;22.90;99.90
16995;DHT22;8614;48.522;9.206;2023-08-20T06:36:42;23.10;99.90
16995;DHT22;8614;48.522;9.206;2023-08-20T06:39:09;23.20;99.90
16995;DHT22;8614;48.522;9.206;2023-08-20T06:41:36;23.30;99.90
16995;DHT22;8614;48.522;9.206;2023-08-20T06:44:11;23.40;99.90
16995;DHT22;8614;48.522;9.206;2023-08-20T06:46:38;23.50;99.90
16995;DHT22;8614;48.522;9.206;2023-08-20T06:49:05;23.70;99.90
16995;DHT22;8614;48.522;9.206;2023-08-20T06:51:32;23.90;99.90
16995;DHT22;8614;48.522;9.206;2023-08-20T06:54:01;24.10;99.90
16995;DHT22;8614;48.522;9.206;2023-08-20T06:56:28;24.30;99.90
16995;DHT22;8614;48.522;9.206;2023-08-20T06:58:55;24.50;99.90
16995;DHT22;8614;48.522;9.206;2023-08-20T07:01:21;24.70;99.90
16995;DHT22;8614;48.522;9.206;2023-08-20T07:03:48;24.60;99.90
16995;DHT22;8614;48.522;9.206;2023-08-20T07:06:15;24.60;99.90
16995;DHT22;8614;48.522;9.206;2023-08-20T07:08:44;24.40;99.90
16995;DHT22;8614;48.522;9.206;2023-08-20T07:11:12;24.50;99.90
16995;DHT22;8614;48.522;9.206;2023-08-20T07:13:39;24.60;99.90
16995;DHT22;8614;48.522;9.206;2023-08-20T07:16:05;24.80;99.90
16995;DHT22;8614;48.522;9.206;2023-08-20T07:18:32;24.90;99.90
16995;DHT22;8614;48.522;9.206;2023-08-20T07:20:59;25.20;99.90
16995;DHT22;8614;48.522;9.206;2023-08-20T07:23:26;25.40;99.90
16995;DHT22;8614;48.522;9.206;2023-08-20T07:26:04;25.30;99.90
16995;DHT22;8614;48.522;9.206;2023-08-20T07:28:32;25.40;99.90
16995;DHT22;8614;48.522;9.206;2023-08-20T07:31:13;25.70;99.90
16995;DHT22;8614;48.522;9.206;2023-08-20T07:33:40;26.00;99.90
16995;DHT22;8614;48.522;9.206;2023-08-20T07:36:07;26.20;99.90
16995;DHT22;8614;48.522;9.206;2023-08-20T07:38:33;26.70;99.90
16995;DHT22;8614;48.522;9.206;2023-08-20T07:41:01;27.00;99.90
16995;DHT22;8614;48.522;9.206;2023-08-20T07:43:27;27.20;99.90
16995;DHT22;8614;48.522;9.206;2023-08-20T07:45:55;27.50;99.90
16995;DHT22;8614;48.522;9.206;2023-08-20T07:48:22;27.80;99.90
16995;DHT22;8614;48.522;9.206;2023-08-20T07:50:49;27.80;99.90
16995;DHT22;8614;48.522;9.206;2023-08-20T07:53:16;28.10;99.90
16995;DHT22;8614;48.522;9.206;2023-08-20T07:55:44;28.50;99.90
16995;DHT22;8614;48.522;9.206;2023-08-20T07:58:11;29.00;99.90
16995;DHT22;8614;48.522;9.206;2023-08-20T08:00:37;29.30;99.90
16995;DHT22;8614;48.522;9.206;2023-08-20T08:03:06;29.70;99.90
16995;DHT22;8614;48.522;9.206;2023-08-20T08:05:33;30.00;99.90
16995;DHT22;8614;48.522;9.206;2023-08-20T08:08:00;30.20;99.90
16995;DHT22;8614;48.522;9.206;2023-08-20T08:10:26;30.20;99.90
16995;DHT22;8614;48.522;9.206;2023-08-20T08:12:53;30.60;99.90
16995;DHT22;8614;48.522;9.206;2023-08-20T08:15:20;30.90;99.90
16995;DHT22;8614;48.522;9.206;2023-08-20T08:17:47;31.10;99.90
16995;DHT22;8614;48.522;9.206;2023-08-20T08:20:15;30.80;99.90
16995;DHT22;8614;48.522;9.206;2023-08-20T08:22:42;30.80;99.90
16995;DHT22;8614;48.522;9.206;2023-08-20T08:25:09;30.90;99.90
16995;DHT22;8614;48.522;9.206;2023-08-20T08:27:36;31.10;99.90
16995;DHT22;8614;48.522;9.206;2023-08-20T08:30:04;31.50;99.90
16995;DHT22;8614;48.522;9.206;2023-08-20T08:32:31;31.50;99.90
16995;DHT22;8614;48.522;9.206;2023-08-20T08:34:57;31.50;99.90
16995;DHT22;8614;48.522;9.206;2023-08-20T08:37:25;31.50;99.90
16995;DHT22;8614;48.522;9.206;2023-08-20T08:39:52;31.70;99.90
16995;DHT22;8614;48.522;9.206;2023-08-20T08:42:22;31.70;99.90
16995;DHT22;8614;48.522;9.206;2023-08-20T08:44:50;31.60;99.90
16995;DHT22;8614;48.522;9.206;2023-08-20T08:47:18;31.60;99.90
16995;DHT22;8614;48.522;9.206;2023-08-20T08:49:46;31.60;99.90
16995;DHT22;8614;48.522;9.206;2023-08-20T08:52:14;31.60;99.90
16995;DHT22;8614;48.522;9.206;2023-08-20T08:54:43;31.70;99.90
16995;DHT22;8614;48.522;9.206;2023-08-20T08:57:10;32.10;99.90
16995;DHT22;8614;48.522;9.206;2023-08-20T08:59:37;32.30;99.90
16995;DHT22;8614;48.522;9.206;2023-08-20T09:02:08;32.80;99.90
16995;DHT22;8614;48.522;9.206;2023-08-20T09:04:38;32.90;99.90
16995;DHT22;8614;48.522;9.206;2023-08-20T09:07:05;33.20;99.90
16995;DHT22;8614;48.522;9.206;2023-08-20T09:09:32;33.20;99.90
16995;DHT22;8614;48.522;9.206;2023-08-20T09:12:00;33.10;99.90
16995;DHT22;8614;48.522;9.206;2023-08-20T09:14:29;33.10;99.90
16995;DHT22;8614;48.522;9.206;2023-08-20T09:16:57;33.20;99.90
16995;DHT22;8614;48.522;9.206;2023-08-20T09:19:24;33.40;99.90
16995;DHT22;8614;48.522;9.206;2023-08-20T09:21:51;33.30;99.90
16995;DHT22;8614;48.522;9.206;2023-08-20T09:26:57;33.00;99.90
16995;DHT22;8614;48.522;9.206;2023-08-20T09:29:25;32.90;99.90
16995;DHT22;8614;48.522;9.206;2023-08-20T09:32:00;32.70;99.90
16995;DHT22;8614;48.522;9.206;2023-08-20T09:34:36;32.90;99.90
16995;DHT22;8614;48.522;9.206;2023-08-20T09:37:03;33.20;99.90
16995;DHT22;8614;48.522;9.206;2023-08-20T09:39:29;33.10;99.90
16995;DHT22;8614;48.522;9.206;2023-08-20T09:41:57;33.20;99.90
16995;DHT22;8614;48.522;9.206;2023-08-20T09:44:28;33.20;99.90
16995;DHT22;8614;48.522;9.206;2023-08-20T09:46:57;33.30;99.90
16995;DHT22;8614;48.522;9.206;2023-08-20T09:49:29;33.30;99.90
16995;DHT22;8614;48.522;9.206;2023-08-20T09:51:57;33.20;99.90
16995;DHT22;8614;48.522;9.206;2023-08-20T09:54:31;33.50;99.90
16995;DHT22;8614;48.522;9.206;2023-08-20T09:57:01;33.10;99.90
16995;DHT22;8614;48.522;9.206;2023-08-20T09:59:30;33.30;99.90
16995;DHT22;8614;48.522;9.206;2023-08-20T10:01:58;33.60;99.90
16995;DHT22;8614;48.522;9.206;2023-08-20T10:04:26;33.80;99.90
16995;DHT22;8614;48.522;9.206;2023-08-20T10:06:53;33.70;99.90
16995;DHT22;8614;48.522;9.206;2023-08-20T10:09:21;33.60;99.90
16995;DHT22;8614;48.522;9.206;2023-08-20T10:11:48;33.60;99.90
16995;DHT22;8614;48.522;9.206;2023-08-20T10:14:16;33.60;99.90
16995;DHT22;8614;48.522;9.206;2023-08-20T10:16:44;33.30;99.90
16995;DHT22;8614;48.522;9.206;2023-08-20T10:19:12;32.90;99.90
16995;DHT22;8614;48.522;9.206;2023-08-20T10:21:44;32.70;99.90
16995;DHT22;8614;48.522;9.206;2023-08-20T10:24:16;32.60;99.90
16995;DHT22;8614;48.522;9.206;2023-08-20T10:26:45;32.70;99.90
16995;DHT22;8614;48.522;9.206;2023-08-20T10:29:34;32.60;99.90
16995;DHT22;8614;48.522;9.206;2023-08-20T10:32:04;32.40;99.90
16995;DHT22;8614;48.522;9.206;2023-08-20T10:34:35;32.40;99.90
16995;DHT22;8614;48.522;9.206;2023-08-20T10:37:03;32.30;99.90
16995;DHT22;8614;48.522;9.206;2023-08-20T10:39:35;32.20;99.90
16995;DHT22;8614;48.522;9.206;2023-08-20T10:42:32;32.20;99.90
16995;DHT22;8614;48.522;9.206;2023-08-20T10:45:00;32.30;99.90
16995;DHT22;8614;48.522;9.206;2023-08-20T10:47:37;32.10;99.90
16995;DHT22;8614;48.522;9.206;2023-08-20T10:50:04;31.90;99.90
16995;DHT22;8614;48.522;9.206;2023-08-20T10:52:38;31.70;99.90
16995;DHT22;8614;48.522;9.206;2023-08-20T10:55:06;31.90;99.90
16995;DHT22;8614;48.522;9.206;2023-08-20T10:57:34;32.00;99.90
16995;DHT22;8614;48.522;9.206;2023-08-20T11:00:03;32.10;99.90
16995;DHT22;8614;48.522;9.206;2023-08-20T11:02:38;32.00;99.90
16995;DHT22;8614;48.522;9.206;2023-08-20T11:05:16;31.90;99.90
16995;DHT22;8614;48.522;9.206;2023-08-20T11:07:45;32.00;99.90
16995;DHT22;8614;48.522;9.206;2023-08-20T11:10:13;32.00;99.90
16995;DHT22;8614;48.522;9.206;2023-08-20T11:12:41;31.80;99.90
16995;DHT22;8614;48.522;9.206;2023-08-20T11:15:09;31.90;99.90
16995;DHT22;8614;48.522;9.206;2023-08-20T11:17:41;31.80;99.90
16995;DHT22;8614;48.522;9.206;2023-08-20T11:20:09;31.70;99.90
16995;DHT22;8614;48.522;9.206;2023-08-20T11:22:38;31.80;99.90
16995;DHT22;8614;48.522;9.206;2023-08-20T11:25:09;31.80;99.90
16995;DHT22;8614;48.522;9.206;2023-08-20T11:27:36;32.00;99.90
16995;DHT22;8614;48.522;9.206;2023-08-20T11:30:07;31.90;99.90
16995;DHT22;8614;48.522;9.206;2023-08-20T11:32:35;31.90;99.90
16995;DHT22;8614;48.522;9.206;2023-08-20T11:35:04;31.90;99.90
16995;DHT22;8614;48.522;9.206;2023-08-20T11:37:31;32.00;99.90
16995;DHT22;8614;48.522;9.206;2023-08-20T11:39:58;31.80;99.90
16995;DHT22;8614;48.522;9.206;2023-08-20T11:42:25;31.80;99.90
16995;DHT22;8614;48.522;9.206;2023-08-20T11:44:55;31.60;99.90
16995;DHT22;8614;48.522;9.206;2023-08-20T11:47:22;31.60;99.90
16995;DHT22;8614;48.522;9.206;2023-08-20T11:50:03;31.60;99.90
16995;DHT22;8614;48.522;9.206;2023-08-20T11:52:31;31.60;99.90
16995;DHT22;8614;48.522;9.206;2023-08-20T11:54:58;31.80;99.90
16995;DHT22;8614;48.522;9.206;2023-08-20T11:57:25;31.60;99.90
16995;DHT22;8614;48.522;9.206;2023-08-20T11:59:52;31.50;99.90
16995;DHT22;8614;48.522;9.206;2023-08-20T12:02:25;31.60;99.90
16995;DHT22;8614;48.522;9.206;2023-08-20T12:04:52;31.50;99.90
16995;DHT22;8614;48.522;9.206;2023-08-20T12:07:20;31.50;99.90
16995;DHT22;8614;48.522;9.206;2023-08-20T12:09:46;31.40;99.90
16995;DHT22;8614;48.522;9.206;2023-08-20T12:12:14;31.30;99.90
16995;DHT22;8614;48.522;9.206;2023-08-20T12:14:41;31.20;99.90
16995;DHT22;8614;48.522;9.206;2023-08-20T12:17:09;31.40;99.90
16995;DHT22;8614;48.522;9.206;2023-08-20T12:19:36;31.20;99.90
16995;DHT22;8614;48.522;9.206;2023-08-20T12:22:02;31.20;99.90
16995;DHT22;8614;48.522;9.206;2023-08-20T12:24:31;31.30;99.90
16995;DHT22;8614;48.522;9.206;2023-08-20T12:26:58;31.20;99.90
16995;DHT22;8614;48.522;9.206;2023-08-20T12:29:25;31.20;99.90
16995;DHT22;8614;48.522;9.206;2023-08-20T12:31:51;31.20;99.90
16995;DHT22;8614;48.522;9.206;2023-08-20T12:34:19;31.30;99.90
16995;DHT22;8614;48.522;9.206;2023-08-20T12:36:47;31.40;99.90
16995;DHT22;8614;48.522;9.206;2023-08-20T12:39:13;31.30;99.90
16995;DHT22;8614;48.522;9.206;2023-08-20T12:41:42;31.20;99.90
16995;DHT22;8614;48.522;9.206;2023-08-20T12:44:09;31.20;99.90
16995;DHT22;8614;48.522;9.206;2023-08-20T12:46:35;31.40;99.90
16995;DHT22;8614;48.522;9.206;2023-08-20T12:49:02;31.40;99.90
16995;DHT22;8614;48.522;9.206;2023-08-20T12:51:29;31.40;99.90
16995;DHT22;8614;48.522;9.206;2023-08-20T12:53:56;31.30;99.90
16995;DHT22;8614;48.522;9.206;2023-08-20T12:56:23;31.30;99.90
16995;DHT22;8614;48.522;9.206;2023-08-20T12:58:51;31.40;99.90
16995;DHT22;8614;48.522;9.206;2023-08-20T13:01:18;31.30;99.90
16995;DHT22;8614;48.522;9.206;2023-08-20T13:03:46;31.30;99.90
16995;DHT22;8614;48.522;9.206;2023-08-20T13:06:14;31.20;99.90
16995;DHT22;8614;48.522;9.206;2023-08-20T13:08:42;31.20;99.90
16995;DHT22;8614;48.522;9.206;2023-08-20T13:11:11;31.20;99.90
16995;DHT22;8614;48.522;9.206;2023-08-20T13:13:40;31.30;99.90
16995;DHT22;8614;48.522;9.206;2023-08-20T13:16:09;31.30;99.90
16995;DHT22;8614;48.522;9.206;2023-08-20T13:18:36;31.30;99.90
16995;DHT22;8614;48.522;9.206;2023-08-20T13:21:03;31.40;99.90
16995;DHT22;8614;48.522;9.206;2023-08-20T13:23:30;31.40;99.90
16995;DHT22;8614;48.522;9.206;2023-08-20T13:25:57;31.40;99.90
16995;DHT22;8614;48.522;9.206;2023-08-20T13:28:24;31.30;99.90
16995;DHT22;8614;48.522;9.206;2023-08-20T13:30:50;31.30;99.90
16995;DHT22;8614;48.522;9.206;2023-08-20T13:33:19;31.40;99.90
16995;DHT22;8614;48.522;9.206;2023-08-20T13:35:45;31.40;99.90
16995;DHT22;8614;48.522;9.206;2023-08-20T13:38:12;31.40;99.90
16995;DHT22;8614;48.522;9.206;2023-08-20T13:40:39;31.40;99.90
16995;DHT22;8614;48.522;9.206;2023-08-20T13:43:06;31.50;99.90
16995;DHT22;8614;48.522;9.206;2023-08-20T13:45:34;31.50;99.90
16995;DHT22;8614;48.522;9.206;2023-08-20T13:48:01;31.50;99.90
16995;DHT22;8614;48.522;9.206;2023-08-20T13:50:30;31.50;99.90
16995;DHT22;8614;48.522;9.206;2023-08-20T13:52:57;31.40;99.90
16995;DHT22;8614;48.522;9.206;2023-08-20T13:55:24;31.40;99.90
16995;DHT22;8614;48.522;9.206;2023-08-20T13:57:50;31.40;99.90
16995;DHT22;8614;48.522;9.206;2023-08-20T14:00:17;31.40;99.90
16995;DHT22;8614;48.522;9.206;2023-08-20T14:02:44;31.50;99.90
16995;DHT22;8614;48.522;9.206;2023-08-20T14:05:11;31.50;99.90
16995;DHT22;8614;48.522;9.206;2023-08-20T14:07:39;31.50;99.90
16995;DHT22;8614;48.522;9.206;2023-08-20T14:10:08;31.50;99.90
16995;DHT22;8614;48.522;9.206;2023-08-20T14:12:35;31.40;99.90
16995;DHT22;8614;48.522;9.206;2023-08-20T14:15:02;31.40;99.90
16995;DHT22;8614;48.522;9.206;2023-08-20T14:17:28;31.40;99.90
16995;DHT22;8614;48.522;9.206;2023-08-20T14:19:56;31.40;99.90
16995;DHT22;8614;48.522;9.206;2023-08-20T14:22:22;31.40;99.90
16995;DHT22;8614;48.522;9.206;2023-08-20T14:24:51;31.40;99.90
16995;DHT22;8614;48.522;9.206;2023-08-20T14:27:17;31.40;99.90
16995;DHT22;8614;48.522;9.206;2023-08-20T14:29:44;31.40;99.90
16995;DHT22;8614;48.522;9.206;2023-08-20T14:32:11;31.40;99.90
16995;DHT22;8614;48.522;9.206;2023-08-20T14:34:38;31.50;99.90
16995;DHT22;8614;48.522;9.206;2023-08-20T14:37:05;31.50;99.90
16995;DHT22;8614;48.522;9.206;2023-08-20T14:39:32;31.50;99.90
16995;DHT22;8614;48.522;9.206;2023-08-20T14:42:00;31.60;99.90
16995;DHT22;8614;48.522;9.206;2023-08-20T14:44:28;31.60;99.90
16995;DHT22;8614;48.522;9.206;2023-08-20T14:46:54;31.60;99.90
16995;DHT22;8614;48.522;9.206;2023-08-20T14:49:21;31.60;99.90
16995;DHT22;8614;48.522;9.206;2023-08-20T14:51:48;31.60;99.90
16995;DHT22;8614;48.522;9.206;2023-08-20T14:54:15;31.60;99.90
16995;DHT22;8614;48.522;9.206;2023-08-20T14:56:42;31.70;99.90
16995;DHT22;8614;48.522;9.206;2023-08-20T14:59:10;31.80;99.90
16995;DHT22;8614;48.522;9.206;2023-08-20T15:01:37;31.80;99.90
16995;DHT22;8614;48.522;9.206;2023-08-20T15:04:04;31.80;99.90
16995;DHT22;8614;48.522;9.206;2023-08-20T15:06:32;31.70;99.90
16995;DHT22;8614;48.522;9.206;2023-08-20T15:08:59;31.70;99.90
16995;DHT22;8614;48.522;9.206;2023-08-20T15:11:25;31.70;99.90
16995;DHT22;8614;48.522;9.206;2023-08-20T15:13:53;31.80;99.90
16995;DHT22;8614;48.522;9.206;2023-08-20T15:16:21;31.80;99.90
16995;DHT22;8614;48.522;9.206;2023-08-20T15:18:48;31.90;99.90
16995;DHT22;8614;48.522;9.206;2023-08-20T15:21:15;31.90;99.90
16995;DHT22;8614;48.522;9.206;2023-08-20T15:23:41;32.00;99.90
16995;DHT22;8614;48.522;9.206;2023-08-20T15:26:08;32.00;99.90
16995;DHT22;8614;48.522;9.206;2023-08-20T15:28:35;32.00;99.90
16995;DHT22;8614;48.522;9.206;2023-08-20T15:31:02;32.00;99.90
16995;DHT22;8614;48.522;9.206;2023-08-20T15:33:30;31.90;99.90
16995;DHT22;8614;48.522;9.206;2023-08-20T15:35:58;31.80;99.90
16995;DHT22;8614;48.522;9.206;2023-08-20T15:38:25;31.70;99.90
16995;DHT22;8614;48.522;9.206;2023-08-20T15:40:53;31.60;99.90
16995;DHT22;8614;48.522;9.206;2023-08-20T15:43:19;31.60;99.90
16995;DHT22;8614;48.522;9.206;2023-08-20T15:45:46;31.60;99.90
16995;DHT22;8614;48.522;9.206;2023-08-20T15:48:13;31.60;99.90
16995;DHT22;8614;48.522;9.206;2023-08-20T15:50:41;31.50;99.90
16995;DHT22;8614;48.522;9.206;2023-08-20T15:53:08;31.50;99.90
16995;DHT22;8614;48.522;9.206;2023-08-20T15:55:35;31.40;99.90